Terminal Aerodrome Forecast
Issued by NWS Topeka, KS

Home | Current Version | Previous Version | Graphics & Text | Print | Product List | Glossary On
Versions: 1 2 3 4 5 6 7 8 9 10 11 12 13 14 15 16 17 18 19 20 21 22 23 24
735
FTUS43 KTOP 170520
TAFTOP
TAF
KTOP 170520Z 1706/1806 01005KT P6SM BKN050
     FM170700 36006KT 6SM -TSRA OVC035CB
     FM170900 36007KT P6SM -SHRA OVC025
     FM171200 36007KT P6SM OVC015
     FM171800 03009KT P6SM VCSH BKN020
     FM180000 09005KT P6SM BKN015=

USA.gov is the U.S. government's official web portal to all federal, state and local government web resources and services.